sensor_id;sensor_type;location;lat;lon;timestamp;P1;durP1;ratioP1;P2;durP2;ratioP2
30934;SDS011;51033;42.648;23.292;2022-09-01T00:01:13;9.02;;;6.95;;
30934;SDS011;51033;42.648;23.292;2022-09-01T00:03:44;9.27;;;7.20;;
30934;SDS011;51033;42.648;23.292;2022-09-01T00:06:16;7.88;;;5.88;;
30934;SDS011;51033;42.648;23.292;2022-09-01T00:08:54;10.88;;;6.60;;
30934;SDS011;51033;42.648;23.292;2022-09-01T00:11:21;9.38;;;7.40;;
30934;SDS011;51033;42.648;23.292;2022-09-01T00:13:47;9.27;;;6.95;;
30934;SDS011;51033;42.648;23.292;2022-09-01T00:16:14;9.68;;;7.28;;
30934;SDS011;51033;42.648;23.292;2022-09-01T00:18:45;11.15;;;7.97;;
30934;SDS011;51033;42.648;23.292;2022-09-01T00:21:16;14.85;;;8.32;;
30934;SDS011;51033;42.648;23.292;2022-09-01T00:23:44;12.23;;;7.10;;
30934;SDS011;51033;42.648;23.292;2022-09-01T00:26:09;8.40;;;6.65;;
30934;SDS011;51033;42.648;23.292;2022-09-01T00:28:35;9.93;;;6.32;;
30934;SDS011;51033;42.648;23.292;2022-09-01T00:31:01;10.38;;;7.15;;
30934;SDS011;51033;42.648;23.292;2022-09-01T00:33:31;7.75;;;6.22;;
30934;SDS011;51033;42.648;23.292;2022-09-01T00:35:57;9.55;;;6.97;;
30934;SDS011;51033;42.648;23.292;2022-09-01T00:38:23;13.45;;;7.57;;
30934;SDS011;51033;42.648;23.292;2022-09-01T00:40:50;10.27;;;7.50;;
30934;SDS011;51033;42.648;23.292;2022-09-01T00:43:16;9.73;;;7.32;;
30934;SDS011;51033;42.648;23.292;2022-09-01T00:46:01;8.52;;;7.50;;
30934;SDS011;51033;42.648;23.292;2022-09-01T00:48:27;10.10;;;6.90;;
30934;SDS011;51033;42.648;23.292;2022-09-01T00:50:53;11.43;;;7.57;;
30934;SDS011;51033;42.648;23.292;2022-09-01T00:53:19;8.60;;;6.82;;
30934;SDS011;51033;42.648;23.292;2022-09-01T00:55:44;11.77;;;7.07;;
30934;SDS011;51033;42.648;23.292;2022-09-01T00:58:10;10.65;;;7.35;;
30934;SDS011;51033;42.648;23.292;2022-09-01T01:00:36;9.82;;;6.88;;
30934;SDS011;51033;42.648;23.292;2022-09-01T01:03:05;9.18;;;6.78;;
30934;SDS011;51033;42.648;23.292;2022-09-01T01:05:35;7.78;;;6.70;;
30934;SDS011;51033;42.648;23.292;2022-09-01T01:08:18;10.00;;;6.50;;
30934;SDS011;51033;42.648;23.292;2022-09-01T01:11:10;10.13;;;7.07;;
30934;SDS011;51033;42.648;23.292;2022-09-01T01:16:26;10.00;;;7.07;;
30934;SDS011;51033;42.648;23.292;2022-09-01T01:18:53;9.93;;;7.40;;
30934;SDS011;51033;42.648;23.292;2022-09-01T01:21:24;10.25;;;8.23;;
30934;SDS011;51033;42.648;23.292;2022-09-01T01:24:30;10.65;;;8.77;;
30934;SDS011;51033;42.648;23.292;2022-09-01T01:26:58;11.68;;;8.27;;
30934;SDS011;51033;42.648;23.292;2022-09-01T01:29:25;11.18;;;8.32;;
30934;SDS011;51033;42.648;23.292;2022-09-01T01:31:55;11.55;;;7.90;;
30934;SDS011;51033;42.648;23.292;2022-09-01T01:34:21;9.25;;;7.05;;
30934;SDS011;51033;42.648;23.292;2022-09-01T01:36:47;9.73;;;7.57;;
30934;SDS011;51033;42.648;23.292;2022-09-01T01:39:16;12.75;;;8.68;;
30934;SDS011;51033;42.648;23.292;2022-09-01T01:41:45;11.68;;;8.32;;
30934;SDS011;51033;42.648;23.292;2022-09-01T01:44:13;12.55;;;9.23;;
30934;SDS011;51033;42.648;23.292;2022-09-01T01:46:41;10.40;;;8.23;;
30934;SDS011;51033;42.648;23.292;2022-09-01T01:49:09;11.43;;;9.50;;
30934;SDS011;51033;42.648;23.292;2022-09-01T01:51:37;14.70;;;10.18;;
30934;SDS011;51033;42.648;23.292;2022-09-01T01:54:03;12.68;;;9.55;;
30934;SDS011;51033;42.648;23.292;2022-09-01T01:56:30;14.45;;;9.25;;
30934;SDS011;51033;42.648;23.292;2022-09-01T01:58:57;11.48;;;8.23;;
30934;SDS011;51033;42.648;23.292;2022-09-01T02:01:26;13.05;;;9.32;;
30934;SDS011;51033;42.648;23.292;2022-09-01T02:03:54;12.55;;;9.13;;
30934;SDS011;51033;42.648;23.292;2022-09-01T02:06:21;17.35;;;10.50;;
30934;SDS011;51033;42.648;23.292;2022-09-01T02:08:53;16.35;;;10.90;;
30934;SDS011;51033;42.648;23.292;2022-09-01T02:11:23;18.35;;;12.32;;
30934;SDS011;51033;42.648;23.292;2022-09-01T02:13:52;17.85;;;11.88;;
30934;SDS011;51033;42.648;23.292;2022-09-01T02:16:22;19.60;;;12.68;;
30934;SDS011;51033;42.648;23.292;2022-09-01T02:18:49;19.33;;;13.48;;
30934;SDS011;51033;42.648;23.292;2022-09-01T02:21:17;21.25;;;14.13;;
30934;SDS011;51033;42.648;23.292;2022-09-01T02:23:45;20.50;;;14.13;;
30934;SDS011;51033;42.648;23.292;2022-09-01T02:26:12;17.98;;;12.15;;
30934;SDS011;51033;42.648;23.292;2022-09-01T02:28:40;18.23;;;13.30;;
30934;SDS011;51033;42.648;23.292;2022-09-01T02:31:08;16.65;;;11.38;;
30934;SDS011;51033;42.648;23.292;2022-09-01T02:33:35;19.15;;;12.18;;
30934;SDS011;51033;42.648;23.292;2022-09-01T02:36:04;16.45;;;10.38;;
30934;SDS011;51033;42.648;23.292;2022-09-01T02:38:37;16.30;;;10.10;;
30934;SDS011;51033;42.648;23.292;2022-09-01T02:41:07;14.30;;;9.10;;
30934;SDS011;51033;42.648;23.292;2022-09-01T02:43:33;14.13;;;9.70;;
30934;SDS011;51033;42.648;23.292;2022-09-01T02:46:00;10.80;;;8.30;;
30934;SDS011;51033;42.648;23.292;2022-09-01T02:48:28;11.55;;;8.65;;
30934;SDS011;51033;42.648;23.292;2022-09-01T02:51:05;13.23;;;8.80;;
30934;SDS011;51033;42.648;23.292;2022-09-01T02:53:35;11.43;;;7.32;;
30934;SDS011;51033;42.648;23.292;2022-09-01T02:56:03;12.93;;;8.02;;
30934;SDS011;51033;42.648;23.292;2022-09-01T02:58:33;13.05;;;8.23;;
30934;SDS011;51033;42.648;23.292;2022-09-01T03:01:05;10.48;;;6.70;;
30934;SDS011;51033;42.648;23.292;2022-09-01T03:03:36;11.07;;;7.53;;
30934;SDS011;51033;42.648;23.292;2022-09-01T03:06:02;12.75;;;7.22;;
30934;SDS011;51033;42.648;23.292;2022-09-01T03:08:35;11.35;;;7.28;;
30934;SDS011;51033;42.648;23.292;2022-09-01T03:11:02;10.88;;;8.50;;
30934;SDS011;51033;42.648;23.292;2022-09-01T03:13:29;11.07;;;8.20;;
30934;SDS011;51033;42.648;23.292;2022-09-01T03:15:55;9.48;;;7.43;;
30934;SDS011;51033;42.648;23.292;2022-09-01T03:18:21;12.20;;;8.32;;
30934;SDS011;51033;42.648;23.292;2022-09-01T03:20:46;12.00;;;8.90;;
30934;SDS011;51033;42.648;23.292;2022-09-01T03:23:16;11.98;;;8.48;;
30934;SDS011;51033;42.648;23.292;2022-09-01T03:25:43;11.38;;;7.68;;
30934;SDS011;51033;42.648;23.292;2022-09-01T03:28:10;10.00;;;7.07;;
30934;SDS011;51033;42.648;23.292;2022-09-01T03:30:37;12.70;;;7.55;;
30934;SDS011;51033;42.648;23.292;2022-09-01T03:33:05;9.65;;;6.50;;
30934;SDS011;51033;42.648;23.292;2022-09-01T03:35:32;9.38;;;7.28;;
30934;SDS011;51033;42.648;23.292;2022-09-01T03:37:59;8.60;;;6.63;;
30934;SDS011;51033;42.648;23.292;2022-09-01T03:40:27;10.18;;;7.90;;
30934;SDS011;51033;42.648;23.292;2022-09-01T03:42:57;10.13;;;7.90;;
30934;SDS011;51033;42.648;23.292;2022-09-01T03:45:26;9.82;;;6.80;;
30934;SDS011;51033;42.648;23.292;2022-09-01T03:47:53;8.43;;;6.30;;
30934;SDS011;51033;42.648;23.292;2022-09-01T03:50:20;8.60;;;6.93;;
30934;SDS011;51033;42.648;23.292;2022-09-01T03:52:50;9.13;;;6.30;;
30934;SDS011;51033;42.648;23.292;2022-09-01T03:55:24;7.55;;;6.55;;
30934;SDS011;51033;42.648;23.292;2022-09-01T03:57:54;8.82;;;6.80;;
30934;SDS011;51033;42.648;23.292;2022-09-01T04:00:23;8.13;;;6.00;;
30934;SDS011;51033;42.648;23.292;2022-09-01T04:02:54;8.70;;;7.07;;
30934;SDS011;51033;42.648;23.292;2022-09-01T04:05:22;10.65;;;7.35;;
30934;SDS011;51033;42.648;23.292;2022-09-01T04:07:53;11.75;;;7.72;;
30934;SDS011;51033;42.648;23.292;2022-09-01T04:10:19;10.48;;;7.43;;
30934;SDS011;51033;42.648;23.292;2022-09-01T04:12:46;10.82;;;7.72;;
30934;SDS011;51033;42.648;23.292;2022-09-01T04:15:12;11.35;;;7.82;;
30934;SDS011;51033;42.648;23.292;2022-09-01T04:17:41;9.85;;;7.57;;
30934;SDS011;51033;42.648;23.292;2022-09-01T04:20:26;14.15;;;8.02;;
30934;SDS011;51033;42.648;23.292;2022-09-01T04:22:51;12.88;;;9.43;;
30934;SDS011;51033;42.648;23.292;2022-09-01T04:25:17;13.57;;;8.70;;
30934;SDS011;51033;42.648;23.292;2022-09-01T04:27:48;11.57;;;8.52;;
30934;SDS011;51033;42.648;23.292;2022-09-01T04:30:14;10.20;;;8.13;;
30934;SDS011;51033;42.648;23.292;2022-09-01T04:32:40;13.85;;;8.65;;
30934;SDS011;51033;42.648;23.292;2022-09-01T04:35:08;10.85;;;8.35;;
30934;SDS011;51033;42.648;23.292;2022-09-01T04:37:40;14.63;;;8.95;;
30934;SDS011;51033;42.648;23.292;2022-09-01T04:40:07;13.77;;;8.68;;
30934;SDS011;51033;42.648;23.292;2022-09-01T04:42:34;11.35;;;7.72;;
30934;SDS011;51033;42.648;23.292;2022-09-01T04:45:00;16.30;;;9.18;;
30934;SDS011;51033;42.648;23.292;2022-09-01T04:47:27;13.85;;;8.65;;
30934;SDS011;51033;42.648;23.292;2022-09-01T04:49:56;14.82;;;10.05;;
30934;SDS011;51033;42.648;23.292;2022-09-01T04:52:27;19.13;;;10.45;;
30934;SDS011;51033;42.648;23.292;2022-09-01T04:54:52;20.83;;;10.82;;
30934;SDS011;51033;42.648;23.292;2022-09-01T04:57:19;13.02;;;10.00;;
30934;SDS011;51033;42.648;23.292;2022-09-01T04:59:45;12.65;;;10.02;;
30934;SDS011;51033;42.648;23.292;2022-09-01T05:02:10;15.55;;;9.80;;
30934;SDS011;51033;42.648;23.292;2022-09-01T05:04:36;13.82;;;10.05;;
30934;SDS011;51033;42.648;23.292;2022-09-01T05:07:09;14.27;;;9.55;;
30934;SDS011;51033;42.648;23.292;2022-09-01T05:09:35;16.95;;;10.85;;
30934;SDS011;51033;42.648;23.292;2022-09-01T05:12:02;14.18;;;9.93;;
30934;SDS011;51033;42.648;23.292;2022-09-01T05:14:40;14.88;;;9.82;;
30934;SDS011;51033;42.648;23.292;2022-09-01T05:17:10;16.02;;;10.55;;
30934;SDS011;51033;42.648;23.292;2022-09-01T05:19:38;16.60;;;11.32;;
30934;SDS011;51033;42.648;23.292;2022-09-01T05:22:05;17.05;;;11.07;;
30934;SDS011;51033;42.648;23.292;2022-09-01T05:24:34;15.38;;;11.00;;
30934;SDS011;51033;42.648;23.292;2022-09-01T05:27:00;16.00;;;11.32;;
30934;SDS011;51033;42.648;23.292;2022-09-01T05:29:29;16.30;;;11.27;;
30934;SDS011;51033;42.648;23.292;2022-09-01T05:31:54;13.80;;;9.80;;
30934;SDS011;51033;42.648;23.292;2022-09-01T05:34:20;14.68;;;10.98;;
30934;SDS011;51033;42.648;23.292;2022-09-01T05:36:58;13.65;;;10.27;;
30934;SDS011;51033;42.648;23.292;2022-09-01T05:39:24;13.60;;;9.75;;
30934;SDS011;51033;42.648;23.292;2022-09-01T05:41:51;14.25;;;10.98;;
30934;SDS011;51033;42.648;23.292;2022-09-01T05:44:18;16.77;;;10.95;;
30934;SDS011;51033;42.648;23.292;2022-09-01T05:46:47;17.30;;;10.88;;
30934;SDS011;51033;42.648;23.292;2022-09-01T05:49:13;16.65;;;11.00;;
30934;SDS011;51033;42.648;23.292;2022-09-01T05:51:44;19.48;;;11.93;;
30934;SDS011;51033;42.648;23.292;2022-09-01T05:54:14;15.10;;;10.88;;
30934;SDS011;51033;42.648;23.292;2022-09-01T05:56:45;16.80;;;11.52;;
30934;SDS011;51033;42.648;23.292;2022-09-01T05:59:11;15.02;;;10.80;;
30934;SDS011;51033;42.648;23.292;2022-09-01T06:01:37;14.63;;;11.20;;
30934;SDS011;51033;42.648;23.292;2022-09-01T06:04:05;20.67;;;12.60;;
30934;SDS011;51033;42.648;23.292;2022-09-01T06:06:37;18.00;;;12.25;;
30934;SDS011;51033;42.648;23.292;2022-09-01T06:09:05;23.48;;;13.48;;
30934;SDS011;51033;42.648;23.292;2022-09-01T06:11:32;16.17;;;13.07;;
30934;SDS011;51033;42.648;23.292;2022-09-01T06:13:57;18.95;;;12.32;;
30934;SDS011;51033;42.648;23.292;2022-09-01T06:16:24;19.33;;;12.23;;
30934;SDS011;51033;42.648;23.292;2022-09-01T06:19:09;20.10;;;13.20;;
30934;SDS011;51033;42.648;23.292;2022-09-01T06:21:37;17.25;;;12.00;;
30934;SDS011;51033;42.648;23.292;2022-09-01T06:24:04;18.20;;;12.70;;
30934;SDS011;51033;42.648;23.292;2022-09-01T06:26:32;18.30;;;12.02;;
30934;SDS011;51033;42.648;23.292;2022-09-01T06:29:01;18.27;;;12.60;;
30934;SDS011;51033;42.648;23.292;2022-09-01T06:31:31;18.60;;;12.15;;
30934;SDS011;51033;42.648;23.292;2022-09-01T06:34:02;17.48;;;11.95;;
30934;SDS011;51033;42.648;23.292;2022-09-01T06:36:29;18.45;;;13.32;;
30934;SDS011;51033;42.648;23.292;2022-09-01T06:38:58;17.83;;;11.85;;
30934;SDS011;51033;42.648;23.292;2022-09-01T06:41:25;21.33;;;11.68;;
30934;SDS011;51033;42.648;23.292;2022-09-01T06:43:51;16.52;;;11.07;;
30934;SDS011;51033;42.648;23.292;2022-09-01T06:46:18;15.05;;;10.77;;
30934;SDS011;51033;42.648;23.292;2022-09-01T06:48:46;13.95;;;9.60;;
30934;SDS011;51033;42.648;23.292;2022-09-01T06:51:16;17.05;;;10.43;;
30934;SDS011;51033;42.648;23.292;2022-09-01T06:53:44;15.85;;;10.50;;
30934;SDS011;51033;42.648;23.292;2022-09-01T06:56:13;13.45;;;10.25;;
30934;SDS011;51033;42.648;23.292;2022-09-01T06:58:40;17.17;;;9.07;;
30934;SDS011;51033;42.648;23.292;2022-09-01T07:01:14;13.75;;;9.27;;
30934;SDS011;51033;42.648;23.292;2022-09-01T07:03:42;12.65;;;9.52;;
30934;SDS011;51033;42.648;23.292;2022-09-01T07:06:09;16.67;;;10.30;;
30934;SDS011;51033;42.648;23.292;2022-09-01T07:08:36;15.32;;;10.15;;
30934;SDS011;51033;42.648;23.292;2022-09-01T07:11:04;15.70;;;10.65;;
30934;SDS011;51033;42.648;23.292;2022-09-01T07:13:32;16.23;;;11.30;;
30934;SDS011;51033;42.648;23.292;2022-09-01T07:15:58;14.52;;;11.13;;
30934;SDS011;51033;42.648;23.292;2022-09-01T07:18:24;18.38;;;11.18;;
30934;SDS011;51033;42.648;23.292;2022-09-01T07:20:51;18.55;;;13.27;;
30934;SDS011;51033;42.648;23.292;2022-09-01T07:23:18;22.02;;;11.82;;
30934;SDS011;51033;42.648;23.292;2022-09-01T07:25:46;16.25;;;12.13;;
30934;SDS011;51033;42.648;23.292;2022-09-01T07:28:14;21.55;;;12.23;;
30934;SDS011;51033;42.648;23.292;2022-09-01T07:30:42;20.85;;;13.18;;
30934;SDS011;51033;42.648;23.292;2022-09-01T07:33:13;16.40;;;12.68;;
30934;SDS011;51033;42.648;23.292;2022-09-01T07:35:41;21.15;;;12.52;;
30934;SDS011;51033;42.648;23.292;2022-09-01T07:38:07;20.55;;;13.13;;
30934;SDS011;51033;42.648;23.292;2022-09-01T07:40:34;19.55;;;13.45;;
30934;SDS011;51033;42.648;23.292;2022-09-01T07:43:06;20.80;;;13.20;;
30934;SDS011;51033;42.648;23.292;2022-09-01T07:45:40;18.80;;;12.85;;
30934;SDS011;51033;42.648;23.292;2022-09-01T07:48:11;17.40;;;12.75;;
30934;SDS011;51033;42.648;23.292;2022-09-01T07:50:40;25.80;;;13.63;;
30934;SDS011;51033;42.648;23.292;2022-09-01T07:53:11;33.95;;;15.27;;
30934;SDS011;51033;42.648;23.292;2022-09-01T07:55:52;20.00;;;13.82;;
30934;SDS011;51033;42.648;23.292;2022-09-01T07:58:20;22.35;;;13.73;;
30934;SDS011;51033;42.648;23.292;2022-09-01T08:00:47;27.05;;;15.05;;
30934;SDS011;51033;42.648;23.292;2022-09-01T08:03:16;21.95;;;14.40;;
30934;SDS011;51033;42.648;23.292;2022-09-01T08:05:43;25.90;;;16.25;;
30934;SDS011;51033;42.648;23.292;2022-09-01T08:08:09;20.85;;;14.88;;
30934;SDS011;51033;42.648;23.292;2022-09-01T08:10:38;23.90;;;15.60;;
30934;SDS011;51033;42.648;23.292;2022-09-01T08:13:04;26.45;;;15.57;;
30934;SDS011;51033;42.648;23.292;2022-09-01T08:15:30;25.40;;;17.02;;
30934;SDS011;51033;42.648;23.292;2022-09-01T08:17:55;25.05;;;17.23;;
30934;SDS011;51033;42.648;23.292;2022-09-01T08:20:21;32.25;;;18.58;;
30934;SDS011;51033;42.648;23.292;2022-09-01T08:22:46;25.60;;;17.42;;
30934;SDS011;51033;42.648;23.292;2022-09-01T08:25:12;24.42;;;16.05;;
30934;SDS011;51033;42.648;23.292;2022-09-01T08:27:39;27.27;;;16.95;;
30934;SDS011;51033;42.648;23.292;2022-09-01T08:30:05;24.58;;;16.45;;
30934;SDS011;51033;42.648;23.292;2022-09-01T08:32:33;24.88;;;16.20;;
30934;SDS011;51033;42.648;23.292;2022-09-01T08:35:00;28.48;;;15.85;;
30934;SDS011;51033;42.648;23.292;2022-09-01T08:37:25;19.80;;;14.85;;
30934;SDS011;51033;42.648;23.292;2022-09-01T08:39:52;27.60;;;15.25;;
30934;SDS011;51033;42.648;23.292;2022-09-01T08:42:39;24.52;;;14.90;;
30934;SDS011;51033;42.648;23.292;2022-09-01T08:48:41;24.23;;;15.18;;
30934;SDS011;51033;42.648;23.292;2022-09-01T08:56:38;21.90;;;15.63;;
30934;SDS011;51033;42.648;23.292;2022-09-01T08:59:05;24.08;;;16.17;;
30934;SDS011;51033;42.648;23.292;2022-09-01T09:09:49;24.42;;;14.07;;
30934;SDS011;51033;42.648;23.292;2022-09-01T09:15:09;20.58;;;12.25;;
30934;SDS011;51033;42.648;23.292;2022-09-01T09:17:46;20.45;;;13.68;;
30934;SDS011;51033;42.648;23.292;2022-09-01T09:20:20;20.92;;;13.45;;
30934;SDS011;51033;42.648;23.292;2022-09-01T09:22:46;18.48;;;13.38;;
30934;SDS011;51033;42.648;23.292;2022-09-01T09:25:14;19.48;;;13.75;;
30934;SDS011;51033;42.648;23.292;2022-09-01T09:27:42;18.92;;;13.30;;
30934;SDS011;51033;42.648;23.292;2022-09-01T09:32:44;21.60;;;11.32;;
30934;SDS011;51033;42.648;23.292;2022-09-01T09:35:18;18.65;;;13.20;;
30934;SDS011;51033;42.648;23.292;2022-09-01T09:37:44;17.15;;;12.43;;
30934;SDS011;51033;42.648;23.292;2022-09-01T09:40:11;18.80;;;12.93;;
30934;SDS011;51033;42.648;23.292;2022-09-01T09:42:57;18.60;;;11.95;;
30934;SDS011;51033;42.648;23.292;2022-09-01T09:45:36;20.02;;;12.48;;
30934;SDS011;51033;42.648;23.292;2022-09-01T09:48:26;16.30;;;11.07;;
30934;SDS011;51033;42.648;23.292;2022-09-01T09:50:53;16.92;;;10.93;;
30934;SDS011;51033;42.648;23.292;2022-09-01T09:53:28;18.80;;;12.15;;
30934;SDS011;51033;42.648;23.292;2022-09-01T09:56:16;15.48;;;10.55;;
30934;SDS011;51033;42.648;23.292;2022-09-01T09:58:45;15.50;;;10.20;;
30934;SDS011;51033;42.648;23.292;2022-09-01T10:03:49;19.55;;;11.35;;
30934;SDS011;51033;42.648;23.292;2022-09-01T10:09:16;18.27;;;11.93;;
30934;SDS011;51033;42.648;23.292;2022-09-01T10:11:59;15.32;;;11.82;;
30934;SDS011;51033;42.648;23.292;2022-09-01T10:14:29;19.30;;;12.75;;
30934;SDS011;51033;42.648;23.292;2022-09-01T10:17:15;15.13;;;10.77;;
30934;SDS011;51033;42.648;23.292;2022-09-01T10:19:50;15.23;;;10.63;;
30934;SDS011;51033;42.648;23.292;2022-09-01T10:24:47;15.10;;;11.52;;
30934;SDS011;51033;42.648;23.292;2022-09-01T10:27:20;16.98;;;10.40;;
30934;SDS011;51033;42.648;23.292;2022-09-01T10:29:50;19.60;;;11.68;;
30934;SDS011;51033;42.648;23.292;2022-09-01T10:32:25;18.70;;;10.82;;
30934;SDS011;51033;42.648;23.292;2022-09-01T10:34:55;18.00;;;10.80;;
30934;SDS011;51033;42.648;23.292;2022-09-01T10:37:21;11.55;;;9.77;;
30934;SDS011;51033;42.648;23.292;2022-09-01T10:40:08;11.70;;;9.85;;
30934;SDS011;51033;42.648;23.292;2022-09-01T10:42:43;14.70;;;10.30;;
30934;SDS011;51033;42.648;23.292;2022-09-01T10:45:44;13.80;;;10.68;;
30934;SDS011;51033;42.648;23.292;2022-09-01T10:50:45;15.35;;;11.27;;
30934;SDS011;51033;42.648;23.292;2022-09-01T10:56:00;15.02;;;9.88;;
30934;SDS011;51033;42.648;23.292;2022-09-01T10:58:34;13.77;;;10.18;;
30934;SDS011;51033;42.648;23.292;2022-09-01T11:01:03;15.33;;;8.93;;
30934;SDS011;51033;42.648;23.292;2022-09-01T11:03:32;14.55;;;9.15;;
30934;SDS011;51033;42.648;23.292;2022-09-01T11:06:07;10.70;;;8.65;;
30934;SDS011;51033;42.648;23.292;2022-09-01T11:13:41;14.63;;;9.98;;
30934;SDS011;51033;42.648;23.292;2022-09-01T11:18:55;13.05;;;9.35;;
30934;SDS011;51033;42.648;23.292;2022-09-01T11:33:40;9.93;;;8.85;;
30934;SDS011;51033;42.648;23.292;2022-09-01T11:35:56;13.18;;;10.40;;
30934;SDS011;51033;42.648;23.292;2022-09-01T11:38:24;10.95;;;9.07;;
30934;SDS011;51033;42.648;23.292;2022-09-01T11:40:56;10.73;;;7.95;;
30934;SDS011;51033;42.648;23.292;2022-09-01T11:43:21;9.70;;;7.43;;
30934;SDS011;51033;42.648;23.292;2022-09-01T11:48:56;12.07;;;7.50;;
30934;SDS011;51033;42.648;23.292;2022-09-01T11:51:25;11.65;;;7.55;;
30934;SDS011;51033;42.648;23.292;2022-09-01T11:53:51;6.55;;;5.90;;
30934;SDS011;51033;42.648;23.292;2022-09-01T11:56:24;12.55;;;7.47;;
30934;SDS011;51033;42.648;23.292;2022-09-01T11:58:52;10.85;;;8.27;;
30934;SDS011;51033;42.648;23.292;2022-09-01T12:01:19;12.52;;;8.27;;
30934;SDS011;51033;42.648;23.292;2022-09-01T12:03:45;10.05;;;8.13;;
30934;SDS011;51033;42.648;23.292;2022-09-01T12:06:17;8.80;;;7.45;;
30934;SDS011;51033;42.648;23.292;2022-09-01T12:08:53;11.32;;;8.73;;
30934;SDS011;51033;42.648;23.292;2022-09-01T12:11:22;10.20;;;7.78;;
30934;SDS011;51033;42.648;23.292;2022-09-01T12:13:59;9.25;;;7.72;;
30934;SDS011;51033;42.648;23.292;2022-09-01T12:16:28;10.23;;;7.43;;
30934;SDS011;51033;42.648;23.292;2022-09-01T12:18:55;7.80;;;6.97;;
30934;SDS011;51033;42.648;23.292;2022-09-01T12:21:27;9.45;;;7.38;;
30934;SDS011;51033;42.648;23.292;2022-09-01T12:24:12;9.73;;;7.05;;
30934;SDS011;51033;42.648;23.292;2022-09-01T12:26:39;13.15;;;8.50;;
30934;SDS011;51033;42.648;23.292;2022-09-01T12:29:05;9.30;;;7.97;;
30934;SDS011;51033;42.648;23.292;2022-09-01T12:31:31;12.23;;;8.57;;
30934;SDS011;51033;42.648;23.292;2022-09-01T12:33:58;11.27;;;7.90;;
30934;SDS011;51033;42.648;23.292;2022-09-01T12:36:29;11.77;;;8.30;;
30934;SDS011;51033;42.648;23.292;2022-09-01T12:39:19;11.95;;;7.40;;
30934;SDS011;51033;42.648;23.292;2022-09-01T12:41:59;9.68;;;8.68;;
30934;SDS011;51033;42.648;23.292;2022-09-01T12:44:31;8.77;;;7.88;;
30934;SDS011;51033;42.648;23.292;2022-09-01T12:47:00;10.20;;;8.15;;
30934;SDS011;51033;42.648;23.292;2022-09-01T12:49:41;12.60;;;8.70;;
30934;SDS011;51033;42.648;23.292;2022-09-01T12:57:10;19.60;;;8.60;;
30934;SDS011;51033;42.648;23.292;2022-09-01T13:00:04;9.50;;;8.15;;
30934;SDS011;51033;42.648;23.292;2022-09-01T13:07:58;9.88;;;8.30;;
30934;SDS011;51033;42.648;23.292;2022-09-01T13:10:27;11.13;;;8.68;;
30934;SDS011;51033;42.648;23.292;2022-09-01T13:12:56;11.95;;;8.23;;
30934;SDS011;51033;42.648;23.292;2022-09-01T13:15:22;11.02;;;8.88;;
30934;SDS011;51033;42.648;23.292;2022-09-01T13:17:49;13.52;;;8.82;;
30934;SDS011;51033;42.648;23.292;2022-09-01T13:20:15;11.02;;;8.60;;
30934;SDS011;51033;42.648;23.292;2022-09-01T13:22:41;9.48;;;8.48;;
30934;SDS011;51033;42.648;23.292;2022-09-01T13:25:08;10.68;;;7.65;;
30934;SDS011;51033;42.648;23.292;2022-09-01T13:27:35;11.48;;;9.18;;
30934;SDS011;51033;42.648;23.292;2022-09-01T13:30:02;9.13;;;8.10;;
30934;SDS011;51033;42.648;23.292;2022-09-01T13:32:29;11.18;;;8.60;;
30934;SDS011;51033;42.648;23.292;2022-09-01T13:34:54;9.32;;;7.85;;
30934;SDS011;51033;42.648;23.292;2022-09-01T13:37:20;9.07;;;8.13;;
30934;SDS011;51033;42.648;23.292;2022-09-01T13:39:46;10.75;;;8.68;;
30934;SDS011;51033;42.648;23.292;2022-09-01T13:42:12;12.13;;;8.90;;
30934;SDS011;51033;42.648;23.292;2022-09-01T13:44:38;12.77;;;9.32;;
30934;SDS011;51033;42.648;23.292;2022-09-01T13:47:06;11.60;;;8.60;;
30934;SDS011;51033;42.648;23.292;2022-09-01T13:49:32;9.32;;;7.50;;
30934;SDS011;51033;42.648;23.292;2022-09-01T13:51:57;9.27;;;7.82;;
30934;SDS011;51033;42.648;23.292;2022-09-01T13:54:22;12.10;;;8.32;;
30934;SDS011;51033;42.648;23.292;2022-09-01T13:56:48;9.07;;;7.95;;
30934;SDS011;51033;42.648;23.292;2022-09-01T13:59:13;10.68;;;7.78;;
30934;SDS011;51033;42.648;23.292;2022-09-01T14:01:39;8.45;;;7.65;;
30934;SDS011;51033;42.648;23.292;2022-09-01T14:04:07;8.80;;;7.32;;
30934;SDS011;51033;42.648;23.292;2022-09-01T14:06:38;8.88;;;7.57;;
30934;SDS011;51033;42.648;23.292;2022-09-01T14:09:04;10.40;;;8.70;;
30934;SDS011;51033;42.648;23.292;2022-09-01T14:11:29;10.05;;;8.00;;
30934;SDS011;51033;42.648;23.292;2022-09-01T14:13:56;9.23;;;7.50;;
30934;SDS011;51033;42.648;23.292;2022-09-01T14:16:21;11.63;;;8.10;;
30934;SDS011;51033;42.648;23.292;2022-09-01T14:18:47;10.13;;;9.05;;
30934;SDS011;51033;42.648;23.292;2022-09-01T14:21:13;10.60;;;8.55;;
30934;SDS011;51033;42.648;23.292;2022-09-01T14:23:43;12.15;;;8.38;;
30934;SDS011;51033;42.648;23.292;2022-09-01T14:26:10;11.15;;;7.60;;
30934;SDS011;51033;42.648;23.292;2022-09-01T14:28:38;10.50;;;8.25;;
30934;SDS011;51033;42.648;23.292;2022-09-01T14:31:06;8.30;;;7.35;;
30934;SDS011;51033;42.648;23.292;2022-09-01T14:33:37;8.93;;;8.00;;
30934;SDS011;51033;42.648;23.292;2022-09-01T14:36:03;10.02;;;8.27;;
30934;SDS011;51033;42.648;23.292;2022-09-01T14:38:30;12.85;;;8.40;;
30934;SDS011;51033;42.648;23.292;2022-09-01T14:40:56;10.45;;;8.35;;
30934;SDS011;51033;42.648;23.292;2022-09-01T14:43:22;11.75;;;8.02;;
30934;SDS011;51033;42.648;23.292;2022-09-01T14:45:48;12.18;;;7.93;;
30934;SDS011;51033;42.648;23.292;2022-09-01T14:48:14;9.75;;;7.97;;
30934;SDS011;51033;42.648;23.292;2022-09-01T14:50:41;8.32;;;7.53;;
30934;SDS011;51033;42.648;23.292;2022-09-01T14:53:08;9.98;;;7.88;;
30934;SDS011;51033;42.648;23.292;2022-09-01T14:55:34;9.65;;;8.02;;
30934;SDS011;51033;42.648;23.292;2022-09-01T14:58:00;10.05;;;7.82;;
30934;SDS011;51033;42.648;23.292;2022-09-01T15:00:26;9.63;;;7.68;;
30934;SDS011;51033;42.648;23.292;2022-09-01T15:02:52;12.93;;;8.10;;
30934;SDS011;51033;42.648;23.292;2022-09-01T15:05:19;9.73;;;7.05;;
30934;SDS011;51033;42.648;23.292;2022-09-01T15:07:45;8.52;;;7.45;;
30934;SDS011;51033;42.648;23.292;2022-09-01T15:10:12;10.82;;;7.85;;
30934;SDS011;51033;42.648;23.292;2022-09-01T15:12:39;8.57;;;7.68;;
30934;SDS011;51033;42.648;23.292;2022-09-01T15:15:06;9.50;;;7.45;;
30934;SDS011;51033;42.648;23.292;2022-09-01T15:17:32;9.10;;;8.02;;
30934;SDS011;51033;42.648;23.292;2022-09-01T15:19:59;15.20;;;8.32;;
30934;SDS011;51033;42.648;23.292;2022-09-01T15:22:44;9.70;;;6.40;;
30934;SDS011;51033;42.648;23.292;2022-09-01T15:25:11;9.50;;;7.53;;
30934;SDS011;51033;42.648;23.292;2022-09-01T15:27:36;8.77;;;7.05;;
30934;SDS011;51033;42.648;23.292;2022-09-01T15:30:03;7.85;;;7.05;;
30934;SDS011;51033;42.648;23.292;2022-09-01T15:32:38;8.35;;;7.28;;
30934;SDS011;51033;42.648;23.292;2022-09-01T15:35:05;12.77;;;7.68;;
30934;SDS011;51033;42.648;23.292;2022-09-01T15:37:32;8.52;;;7.72;;
30934;SDS011;51033;42.648;23.292;2022-09-01T15:39:57;9.57;;;7.63;;
30934;SDS011;51033;42.648;23.292;2022-09-01T15:42:23;11.63;;;7.75;;